Time;durP1;ratioP1;P1;durP2;ratioP2;P2;SDS_P1;SDS_P2;PMS_P1;PMS_P2;Temp;Humidity;BMP_temperature;BMP_pressure;BME280_temperature;BME280_humidity;BME280_pressure;Samples;Min_cycle;Max_cycle;Signal;HPM_P1;HPM_P2
2021/06/17 00:00:30;;;;;;;11.10;2.20;;;18.10;99.90;;;;;;5050918;28;20462;-76
2021/06/17 00:02:57;;;;;;;10.90;2.73;;;18.00;99.90;;;;;;5047479;28;20195;-76
2021/06/17 00:05:28;;;;;;;13.37;2.67;;;18.00;99.90;;;;;;5049181;28;20211;-77
2021/06/17 00:07:54;;;;;;;9.53;2.40;;;17.90;99.90;;;;;;5048013;28;20187;-77
2021/06/17 00:10:32;;;;;;;10.87;2.77;;;17.90;99.90;;;;;;5051587;28;20197;-77
2021/06/17 00:13:11;;;;;;;8.63;2.40;;;17.90;99.90;;;;;;5048859;28;20186;-76
2021/06/17 00:15:39;;;;;;;9.43;2.73;;;17.90;99.90;;;;;;5032202;28;20242;-76
2021/06/17 00:18:08;;;;;;;8.90;2.60;;;17.90;99.90;;;;;;5050952;28;20194;-76
2021/06/17 00:20:35;;;;;;;8.73;2.60;;;17.70;99.90;;;;;;5051534;28;20207;-76
2021/06/17 00:23:02;;;;;;;8.93;2.47;;;17.60;99.90;;;;;;5050975;28;20194;-77
2021/06/17 00:25:28;;;;;;;9.73;2.47;;;17.60;99.90;;;;;;5051581;28;20658;-76
2021/06/17 00:27:55;;;;;;;8.57;2.33;;;17.60;99.90;;;;;;5057154;28;20183;-76
2021/06/17 00:30:22;;;;;;;9.40;2.57;;;17.60;99.90;;;;;;5037092;28;20192;-77
2021/06/17 00:32:51;;;;;;;11.90;2.53;;;17.60;99.90;;;;;;5055209;28;20187;-75
2021/06/17 00:35:18;;;;;;;11.83;2.73;;;17.60;99.90;;;;;;5059650;28;20977;-75
2021/06/17 00:37:44;;;;;;;13.00;2.83;;;17.60;99.90;;;;;;5053510;28;20281;-76
2021/06/17 00:40:14;;;;;;;6.80;2.43;;;17.50;99.90;;;;;;5053643;28;20594;-76
2021/06/17 00:42:46;;;;;;;9.00;2.67;;;17.40;99.90;;;;;;5081823;28;20278;-76
2021/06/17 00:45:20;;;;;;;14.57;2.83;;;17.60;99.90;;;;;;5040833;28;21328;-76
2021/06/17 00:47:47;;;;;;;7.17;2.53;;;17.60;99.90;;;;;;5034313;28;20236;-76
2021/06/17 00:50:14;;;;;;;12.07;2.50;;;17.50;99.90;;;;;;5056135;28;20194;-76
2021/06/17 00:52:43;;;;;;;9.70;2.57;;;17.50;99.90;;;;;;5051856;28;20278;-76
2021/06/17 00:55:11;;;;;;;11.17;2.60;;;17.40;99.90;;;;;;5038563;28;20248;-76
2021/06/17 00:57:39;;;;;;;11.13;2.87;;;17.40;99.90;;;;;;5036443;28;21129;-76
2021/06/17 01:00:11;;;;;;;7.67;4.00;;;17.40;99.90;;;;;;5041021;28;20274;-76
2021/06/17 01:02:37;;;;;;;7.00;2.53;;;17.50;99.90;;;;;;5053718;28;20198;-76
2021/06/17 01:05:10;;;;;;;11.07;2.53;;;17.50;99.90;;;;;;5049447;28;20217;-76
2021/06/17 01:08:04;;;;;;;10.80;2.83;;;17.40;99.90;;;;;;5055547;28;20532;-76
2021/06/17 01:10:57;;;;;;;10.57;2.57;;;17.40;99.90;;;;;;5053294;28;20285;-77
2021/06/17 01:13:51;;;;;;;9.20;2.50;;;17.40;99.90;;;;;;5065824;28;20729;-76
2021/06/17 01:16:47;;;;;;;6.53;2.40;;;17.40;99.90;;;;;;5054697;28;20195;-77
2021/06/17 01:19:48;;;;;;;11.60;2.90;;;17.40;99.90;;;;;;5054398;28;20210;-76
2021/06/17 01:22:59;;;;;;;7.73;2.33;;;17.50;99.90;;;;;;5053486;28;20554;-77
2021/06/17 01:26:03;;;;;;;8.00;2.47;;;17.40;99.90;;;;;;5047463;28;20191;-77
2021/06/17 01:28:31;;;;;;;13.00;2.90;;;17.40;99.90;;;;;;5034441;28;20194;-77
2021/06/17 01:31:15;;;;;;;11.23;2.67;;;17.30;99.90;;;;;;5053559;28;20349;-76
2021/06/17 01:33:46;;;;;;;9.70;2.47;;;17.20;99.90;;;;;;5051716;28;20204;-76
2021/06/17 01:36:23;;;;;;;8.33;2.87;;;17.30;99.90;;;;;;5050568;28;20199;-77
2021/06/17 01:39:05;;;;;;;11.43;2.70;;;17.20;99.90;;;;;;5052286;28;20626;-76
2021/06/17 01:41:37;;;;;;;8.63;2.60;;;17.30;99.90;;;;;;5049617;28;20195;-77
2021/06/17 01:44:08;;;;;;;8.63;2.90;;;17.30;99.90;;;;;;5052116;28;20203;-77
2021/06/17 01:46:36;;;;;;;6.87;2.20;;;17.20;99.90;;;;;;5052599;28;20239;-77
2021/06/17 01:49:04;;;;;;;8.87;2.40;;;17.10;99.90;;;;;;5058480;28;20187;-77
2021/06/17 01:51:32;;;;;;;8.43;2.40;;;17.00;99.90;;;;;;5034544;28;20199;-77
2021/06/17 01:54:00;;;;;;;9.07;2.40;;;17.00;99.90;;;;;;5052362;28;20252;-77
2021/06/17 01:56:27;;;;;;;12.60;2.80;;;17.10;99.90;;;;;;5058725;28;20186;-77
2021/06/17 01:58:57;;;;;;;6.33;2.43;;;17.00;99.90;;;;;;5037907;28;20895;-74
2021/06/17 02:01:30;;;;;;;8.43;2.40;;;16.90;99.90;;;;;;5050360;28;20195;-73
2021/06/17 02:04:02;;;;;;;7.83;2.70;;;16.90;99.90;;;;;;5052453;28;20208;-74
2021/06/17 02:06:29;;;;;;;10.13;2.60;;;16.90;99.90;;;;;;5054169;28;20242;-74
2021/06/17 02:08:58;;;;;;;8.77;2.47;;;16.90;99.90;;;;;;5052196;28;20202;-73
2021/06/17 02:11:27;;;;;;;17.80;3.10;;;17.10;99.90;;;;;;5051557;28;20202;-75
2021/06/17 02:13:57;;;;;;;10.33;2.77;;;17.10;99.90;;;;;;5048773;28;20242;-76
2021/06/17 02:16:27;;;;;;;11.57;2.80;;;17.20;99.90;;;;;;5052606;28;20210;-76
2021/06/17 02:18:57;;;;;;;16.57;2.87;;;17.20;99.90;;;;;;5054190;28;20198;-75
2021/06/17 02:21:28;;;;;;;10.87;2.50;;;17.00;99.90;;;;;;5049910;28;20306;-75
2021/06/17 02:23:59;;;;;;;7.60;2.40;;;17.00;99.90;;;;;;5083341;28;20274;-76
2021/06/17 02:26:26;;;;;;;10.47;2.70;;;16.90;99.90;;;;;;5050040;28;20605;-76
2021/06/17 02:28:58;;;;;;;11.13;2.77;;;16.90;99.90;;;;;;5068994;28;20233;-76
2021/06/17 02:31:34;;;;;;;9.67;2.80;;;16.90;99.90;;;;;;5052010;28;20780;-76
2021/06/17 02:34:01;;;;;;;8.10;2.47;;;16.90;99.90;;;;;;5049107;28;20185;-75
2021/06/17 02:36:28;;;;;;;12.13;2.90;;;16.80;99.90;;;;;;5049815;28;20226;-77
2021/06/17 02:39:00;;;;;;;9.53;2.70;;;16.70;99.90;;;;;;5056647;28;20384;-74
2021/06/17 02:41:27;;;;;;;7.03;2.60;;;16.70;99.90;;;;;;5050751;28;20278;-75
2021/06/17 02:43:58;;;;;;;7.63;2.47;;;16.70;99.90;;;;;;5050188;28;20198;-75
2021/06/17 02:46:24;;;;;;;9.10;2.43;;;16.80;99.90;;;;;;5050796;28;20298;-75
2021/06/17 02:48:56;;;;;;;11.17;3.17;;;16.80;99.90;;;;;;5049328;28;20531;-75
2021/06/17 02:51:23;;;;;;;11.83;3.47;;;16.90;99.90;;;;;;5046115;28;20250;-73
2021/06/17 02:53:50;;;;;;;10.90;2.67;;;16.90;99.90;;;;;;5056123;28;20272;-74
2021/06/17 02:56:43;;;;;;;11.97;2.63;;;16.90;99.90;;;;;;5048500;28;20195;-73
2021/06/17 02:59:15;;;;;;;9.63;2.80;;;16.80;99.90;;;;;;5051243;28;20199;-73
2021/06/17 03:02:17;;;;;;;10.53;3.13;;;17.00;99.90;;;;;;5046792;28;20304;-73
2021/06/17 03:04:57;;;;;;;7.20;2.47;;;17.00;99.90;;;;;;5052289;28;20217;-73
2021/06/17 03:07:33;;;;;;;7.17;2.87;;;16.90;99.90;;;;;;5053652;28;20269;-73
2021/06/17 03:10:11;;;;;;;8.73;2.67;;;16.80;99.90;;;;;;5052175;28;20192;-74
2021/06/17 03:12:44;;;;;;;8.07;3.10;;;16.80;99.90;;;;;;5035944;28;20191;-73
2021/06/17 03:15:13;;;;;;;14.83;3.37;;;16.90;99.90;;;;;;5051352;28;20197;-73
2021/06/17 03:17:49;;;;;;;14.90;3.47;;;16.80;99.90;;;;;;5045484;28;20218;-73
2021/06/17 03:20:19;;;;;;;7.23;3.13;;;16.90;99.90;;;;;;5047357;28;20653;-72
2021/06/17 03:22:53;;;;;;;11.30;3.30;;;16.80;99.90;;;;;;5048977;28;20178;-75
2021/06/17 03:25:24;;;;;;;10.70;3.33;;;16.90;99.90;;;;;;5052114;28;20237;-76
2021/06/17 03:27:54;;;;;;;7.87;3.10;;;16.90;99.90;;;;;;5038421;28;20206;-75
2021/06/17 03:30:26;;;;;;;15.10;3.43;;;17.00;99.90;;;;;;5034298;28;21036;-76
2021/06/17 03:32:57;;;;;;;7.57;2.83;;;17.00;99.90;;;;;;5047623;28;20687;-76
2021/06/17 03:35:28;;;;;;;10.67;2.97;;;17.00;99.90;;;;;;5048982;28;20221;-76
2021/06/17 03:37:57;;;;;;;10.10;3.73;;;17.00;99.90;;;;;;5049238;28;20187;-76
2021/06/17 03:40:26;;;;;;;11.10;3.20;;;17.00;99.90;;;;;;5048046;28;20615;-76
2021/06/17 03:42:55;;;;;;;11.30;3.20;;;17.10;99.90;;;;;;5033640;28;20191;-76
2021/06/17 03:45:24;;;;;;;9.10;3.37;;;17.10;99.90;;;;;;5051654;28;20199;-76
2021/06/17 03:47:52;;;;;;;8.97;3.10;;;17.30;99.90;;;;;;5035572;28;20199;-73
2021/06/17 03:50:23;;;;;;;12.03;3.20;;;17.40;99.90;;;;;;5048451;28;20202;-74
2021/06/17 03:52:53;;;;;;;8.00;3.10;;;17.40;99.90;;;;;;5049228;28;20698;-74
2021/06/17 03:55:20;;;;;;;21.63;3.47;;;17.40;99.90;;;;;;5034675;28;20183;-74
2021/06/17 03:57:50;;;;;;;6.13;3.00;;;17.40;99.90;;;;;;5035119;28;20274;-74
2021/06/17 04:00:18;;;;;;;14.33;3.50;;;17.30;99.90;;;;;;5055986;28;20212;-74
2021/06/17 04:02:46;;;;;;;13.73;3.30;;;17.40;99.90;;;;;;5047191;28;20187;-74
2021/06/17 04:05:13;;;;;;;15.90;4.10;;;17.40;99.90;;;;;;5047481;28;20219;-75
2021/06/17 04:07:44;;;;;;;11.17;3.20;;;17.40;99.90;;;;;;5047796;28;20214;-75
2021/06/17 04:10:14;;;;;;;10.20;3.20;;;17.60;99.90;;;;;;5048880;28;20579;-75
2021/06/17 04:12:41;;;;;;;16.47;4.03;;;17.60;99.90;;;;;;5037558;28;20214;-74
2021/06/17 04:15:10;;;;;;;12.43;3.70;;;17.70;99.90;;;;;;5040303;28;20179;-75
2021/06/17 04:17:44;;;;;;;12.37;3.73;;;17.70;99.90;;;;;;5034135;28;20183;-76
2021/06/17 04:20:15;;;;;;;11.90;4.13;;;17.80;99.90;;;;;;5048224;28;20183;-75
2021/06/17 04:22:48;;;;;;;15.73;4.17;;;17.80;99.90;;;;;;5042801;28;20298;-75
2021/06/17 04:25:20;;;;;;;14.27;3.67;;;17.90;99.90;;;;;;5048867;28;20327;-75
2021/06/17 04:27:50;;;;;;;15.97;4.40;;;18.00;99.90;;;;;;5049499;28;20322;-75
2021/06/17 04:30:19;;;;;;;15.03;3.60;;;18.10;99.90;;;;;;5048120;28;20731;-75
2021/06/17 04:32:48;;;;;;;15.67;4.30;;;18.20;99.90;;;;;;5046063;28;20192;-75
2021/06/17 04:35:18;;;;;;;13.63;4.10;;;18.30;99.90;;;;;;5048415;28;20202;-75
2021/06/17 04:37:46;;;;;;;13.37;4.00;;;18.40;99.90;;;;;;5047795;28;20245;-75
2021/06/17 04:40:15;;;;;;;11.70;4.57;;;18.40;99.90;;;;;;5051777;28;20245;-74
2021/06/17 04:42:44;;;;;;;11.47;4.10;;;18.50;99.90;;;;;;5036536;28;20213;-76
2021/06/17 04:45:11;;;;;;;12.43;4.10;;;18.60;99.90;;;;;;5065519;28;20240;-76
2021/06/17 04:47:39;;;;;;;11.73;3.70;;;18.60;99.90;;;;;;5032472;28;20250;-75
2021/06/17 04:50:09;;;;;;;14.97;4.77;;;18.70;99.90;;;;;;5042353;28;20187;-74
2021/06/17 04:52:42;;;;;;;11.30;4.37;;;18.80;99.90;;;;;;5059718;28;20183;-75
2021/06/17 04:55:10;;;;;;;14.00;4.47;;;18.90;99.90;;;;;;5057730;28;20222;-75
2021/06/17 04:57:36;;;;;;;8.47;4.37;;;18.90;99.90;;;;;;5061800;28;20195;-74
2021/06/17 05:00:05;;;;;;;14.57;4.97;;;19.10;99.90;;;;;;5057871;28;20191;-74
2021/06/17 05:02:32;;;;;;;15.27;4.30;;;19.10;99.90;;;;;;5059896;28;20303;-74
2021/06/17 05:04:58;;;;;;;22.57;4.97;;;19.20;99.90;;;;;;5056923;28;20218;-74
2021/06/17 05:12:46;;;;;;;12.30;4.23;;;19.50;99.90;;;;;;5080368;28;20194;-73
2021/06/17 05:15:12;;;;;;;18.07;4.37;;;19.50;99.90;;;;;;5046891;28;20855;-73
2021/06/17 05:17:39;;;;;;;9.47;4.40;;;19.60;99.90;;;;;;5059377;28;20226;-73
2021/06/17 05:20:07;;;;;;;12.23;4.20;;;19.60;99.90;;;;;;5059341;28;20195;-74
2021/06/17 05:22:37;;;;;;;11.17;3.90;;;19.70;99.90;;;;;;5043603;28;20195;-74
2021/06/17 05:25:05;;;;;;;11.60;4.47;;;19.70;99.90;;;;;;5063934;28;20282;-76
2021/06/17 05:27:31;;;;;;;9.53;4.10;;;19.70;99.90;;;;;;5064949;28;20218;-74
2021/06/17 05:29:58;;;;;;;9.43;3.67;;;19.80;99.90;;;;;;5060253;28;20187;-74
2021/06/17 05:32:24;;;;;;;7.40;3.23;;;19.70;99.90;;;;;;5045925;28;20175;-73
2021/06/17 05:34:51;;;;;;;9.90;3.93;;;19.90;99.90;;;;;;5055674;28;20219;-73
2021/06/17 05:37:19;;;;;;;10.00;4.10;;;19.90;99.90;;;;;;5062343;28;20286;-75
2021/06/17 05:39:46;;;;;;;13.30;3.73;;;20.00;99.90;;;;;;5056799;28;20198;-73
2021/06/17 05:42:12;;;;;;;8.77;3.33;;;20.10;99.90;;;;;;5063557;28;20560;-73
2021/06/17 05:44:38;;;;;;;7.73;3.37;;;20.10;99.90;;;;;;5062995;28;20182;-73
2021/06/17 05:47:05;;;;;;;8.40;3.90;;;20.20;99.90;;;;;;5057261;28;20243;-75
2021/06/17 05:49:31;;;;;;;9.47;3.57;;;20.30;99.90;;;;;;5061418;28;20186;-75
2021/06/17 05:51:58;;;;;;;10.40;3.77;;;20.50;99.90;;;;;;5057839;28;20190;-74
2021/06/17 05:54:24;;;;;;;9.60;3.40;;;20.50;99.90;;;;;;5062907;28;20186;-74
2021/06/17 05:56:50;;;;;;;8.93;3.50;;;20.70;99.90;;;;;;5057006;28;20188;-75
2021/06/17 05:59:18;;;;;;;8.27;3.60;;;20.80;99.90;;;;;;5066693;28;20175;-74
2021/06/17 06:01:44;;;;;;;12.37;3.50;;;20.90;99.90;;;;;;5059624;28;20206;-72
2021/06/17 06:04:11;;;;;;;17.33;3.60;;;20.80;99.90;;;;;;5059065;28;20241;-72
2021/06/17 06:06:37;;;;;;;7.73;2.77;;;20.90;99.90;;;;;;5058690;28;20699;-73
2021/06/17 06:09:04;;;;;;;8.27;3.70;;;21.00;99.90;;;;;;5054028;28;20195;-72
2021/06/17 06:11:30;;;;;;;7.07;2.80;;;21.10;99.90;;;;;;5058738;28;20182;-72
2021/06/17 06:13:57;;;;;;;7.27;3.17;;;21.10;99.90;;;;;;5061846;28;20633;-72
2021/06/17 06:16:23;;;;;;;4.03;2.70;;;21.10;99.90;;;;;;5062541;28;20195;-71
2021/06/17 06:18:50;;;;;;;7.37;2.77;;;21.20;99.90;;;;;;5063300;28;20186;-71
2021/06/17 06:21:16;;;;;;;5.27;2.80;;;21.30;99.90;;;;;;5056724;28;20191;-73
2021/06/17 06:23:42;;;;;;;5.83;2.60;;;21.30;99.90;;;;;;5058019;28;20682;-73
2021/06/17 06:26:09;;;;;;;9.90;2.93;;;21.40;99.90;;;;;;5055894;28;20723;-72
2021/06/17 06:28:35;;;;;;;7.00;2.70;;;21.50;99.90;;;;;;5057314;28;20191;-72
2021/06/17 06:31:01;;;;;;;6.50;2.83;;;21.60;99.90;;;;;;5058586;28;20190;-73
2021/06/17 06:33:28;;;;;;;5.77;2.67;;;21.70;99.90;;;;;;5058229;28;20606;-72
2021/06/17 06:35:54;;;;;;;6.13;2.60;;;21.90;99.90;;;;;;5059882;28;20579;-73
2021/06/17 06:38:21;;;;;;;3.30;2.20;;;22.00;99.90;;;;;;5048067;28;20190;-74
2021/06/17 06:40:48;;;;;;;6.13;2.53;;;21.90;99.90;;;;;;5051450;28;20780;-74
2021/06/17 06:43:16;;;;;;;7.33;2.73;;;21.90;99.90;;;;;;5061650;28;20268;-76
2021/06/17 06:45:46;;;;;;;5.73;2.53;;;21.90;99.90;;;;;;5057376;28;20187;-74
2021/06/17 06:48:12;;;;;;;6.93;2.63;;;22.10;99.90;;;;;;5059628;28;20261;-75
2021/06/17 06:50:39;;;;;;;6.03;2.30;;;22.20;99.90;;;;;;5058630;28;20191;-75
2021/06/17 06:53:06;;;;;;;6.60;2.53;;;22.30;99.90;;;;;;5059591;28;20191;-73
2021/06/17 06:55:32;;;;;;;6.20;2.80;;;22.60;99.90;;;;;;5063465;28;20503;-74
2021/06/17 06:57:59;;;;;;;6.37;2.80;;;22.50;99.90;;;;;;5059554;28;20182;-74
2021/06/17 07:00:26;;;;;;;8.90;2.70;;;22.50;99.90;;;;;;5057130;28;21004;-73
2021/06/17 07:02:52;;;;;;;9.97;2.60;;;22.60;99.90;;;;;;5059627;28;20187;-72
2021/06/17 07:05:22;;;;;;;4.80;2.50;;;22.90;99.90;;;;;;5059576;28;20230;-74
2021/06/17 07:07:48;;;;;;;6.50;2.93;;;23.00;99.90;;;;;;5043041;28;20512;-75
2021/06/17 07:10:14;;;;;;;6.27;2.17;;;22.90;99.90;;;;;;5056174;28;20176;-75
2021/06/17 07:12:41;;;;;;;8.37;2.73;;;23.00;99.90;;;;;;5053933;28;20190;-75
2021/06/17 07:15:09;;;;;;;4.27;2.23;;;23.10;99.90;;;;;;5076508;28;20278;-72
2021/06/17 07:17:35;;;;;;;5.28;2.75;;;23.50;99.90;;;;;;5055462;28;20195;-73
2021/06/17 07:20:02;;;;;;;6.82;2.70;;;23.50;99.90;;;;;;5041787;28;20191;-73
2021/06/17 07:22:29;;;;;;;3.85;2.45;;;23.80;99.90;;;;;;5059390;28;20187;-73
2021/06/17 07:24:55;;;;;;;3.92;2.35;;;23.80;99.90;;;;;;5050916;28;20632;-73
2021/06/17 07:27:23;;;;;;;11.30;2.97;;;23.90;99.90;;;;;;5056364;28;20247;-73
2021/06/17 07:29:53;;;;;;;6.07;2.90;;;24.00;99.90;;;;;;5062069;28;20508;-72
2021/06/17 07:32:20;;;;;;;11.07;2.88;;;24.10;99.90;;;;;;5056570;28;21077;-72
2021/06/17 07:34:47;;;;;;;7.93;2.83;;;24.20;99.90;;;;;;5054654;28;20195;-72
2021/06/17 07:37:15;;;;;;;11.35;2.80;;;24.20;99.90;;;;;;5051286;28;20187;-72
2021/06/17 07:39:42;;;;;;;5.25;2.50;;;24.30;99.90;;;;;;5041879;28;20214;-72
2021/06/17 07:42:10;;;;;;;14.13;2.60;;;24.40;99.90;;;;;;5051445;28;20207;-72
2021/06/17 07:44:37;;;;;;;9.45;2.50;;;24.30;99.90;;;;;;5049656;28;20293;-72
2021/06/17 07:47:04;;;;;;;7.40;2.77;;;24.30;99.90;;;;;;5079200;28;20207;-72
2021/06/17 07:49:30;;;;;;;7.43;2.53;;;24.30;99.90;;;;;;5055437;28;20279;-71
2021/06/17 07:51:58;;;;;;;7.43;2.80;;;24.30;99.90;;;;;;5054265;28;20692;-71
2021/06/17 07:54:25;;;;;;;9.27;2.90;;;24.50;99.90;;;;;;5060589;28;20898;-72
2021/06/17 07:56:52;;;;;;;9.13;2.73;;;24.40;99.90;;;;;;5082583;28;20218;-72
2021/06/17 07:59:21;;;;;;;5.88;2.55;;;24.50;99.90;;;;;;5046029;28;20201;-72
2021/06/17 08:01:50;;;;;;;6.63;2.30;;;24.80;99.90;;;;;;5052339;28;20187;-72
2021/06/17 08:04:17;;;;;;;8.68;2.70;;;24.90;99.90;;;;;;5058056;28;20263;-72
2021/06/17 08:06:44;;;;;;;7.55;2.92;;;24.90;99.90;;;;;;5053676;28;20207;-72
2021/06/17 08:09:17;;;;;;;6.75;2.58;;;24.90;99.90;;;;;;5069913;28;20686;-72
2021/06/17 08:11:48;;;;;;;7.50;2.70;;;24.80;99.90;;;;;;5058254;28;20182;-71
2021/06/17 08:14:23;;;;;;;8.00;3.00;;;24.90;99.90;;;;;;5036719;28;20190;-72
2021/06/17 08:16:50;;;;;;;7.47;2.67;;;25.00;99.90;;;;;;5054515;28;20183;-73
2021/06/17 08:19:17;;;;;;;5.38;2.63;;;25.20;99.90;;;;;;5057830;28;20210;-72
2021/06/17 08:21:44;;;;;;;5.47;2.58;;;25.20;99.90;;;;;;5058029;28;20644;-72
2021/06/17 08:24:11;;;;;;;7.85;2.80;;;25.30;99.90;;;;;;5058834;28;20189;-72
2021/06/17 08:26:37;;;;;;;7.70;2.50;;;25.40;99.90;;;;;;5054829;28;20679;-72
2021/06/17 08:29:05;;;;;;;13.15;3.47;;;25.50;99.90;;;;;;5057942;28;20285;-73
2021/06/17 08:31:31;;;;;;;4.63;2.40;;;25.60;99.90;;;;;;5057493;28;20183;-73
2021/06/17 08:33:57;;;;;;;8.27;2.70;;;25.60;99.90;;;;;;5057462;28;20784;-71
2021/06/17 08:36:24;;;;;;;7.82;2.90;;;25.60;99.90;;;;;;5055258;28;20278;-72
2021/06/17 08:38:50;;;;;;;7.88;2.90;;;25.90;99.90;;;;;;5053132;28;20447;-72
2021/06/17 08:41:18;;;;;;;5.85;2.75;;;26.00;99.90;;;;;;5055008;28;20241;-72
2021/06/17 08:43:44;;;;;;;8.48;2.80;;;25.90;99.90;;;;;;5053404;28;20270;-72
2021/06/17 08:46:11;;;;;;;8.90;2.50;;;26.00;99.90;;;;;;5069280;28;20207;-72
2021/06/17 08:48:39;;;;;;;9.30;2.83;;;25.80;99.90;;;;;;5056864;28;20187;-72
2021/06/17 08:51:05;;;;;;;6.95;2.50;;;26.00;99.90;;;;;;5060745;28;20186;-72
2021/06/17 08:53:33;;;;;;;10.25;3.05;;;26.00;99.90;;;;;;5056726;28;20290;-72
2021/06/17 08:55:59;;;;;;;10.40;2.80;;;26.10;99.90;;;;;;5067561;28;20191;-71
2021/06/17 08:58:26;;;;;;;5.47;2.40;;;26.20;99.90;;;;;;5061806;28;20191;-73
2021/06/17 09:00:52;;;;;;;8.25;2.78;;;26.30;99.90;;;;;;5059170;28;20187;-73
2021/06/17 09:03:20;;;;;;;7.40;2.95;;;26.50;99.90;;;;;;5058343;28;20245;-72
2021/06/17 09:05:52;;;;;;;5.40;2.33;;;26.30;99.90;;;;;;5060647;28;20222;-71
2021/06/17 09:08:27;;;;;;;6.10;2.50;;;26.60;99.90;;;;;;5057976;28;20194;-72
2021/06/17 09:10:54;;;;;;;8.93;2.97;;;26.50;99.90;;;;;;5057980;28;20178;-72
2021/06/17 09:13:26;;;;;;;11.10;2.90;;;26.50;99.90;;;;;;5058792;28;20215;-71
2021/06/17 09:15:55;;;;;;;8.75;2.92;;;26.60;99.90;;;;;;5062054;28;20183;-72
2021/06/17 09:18:31;;;;;;;10.13;2.85;;;26.50;99.90;;;;;;5062771;28;20194;-73
2021/06/17 09:21:08;;;;;;;7.00;2.50;;;26.70;99.90;;;;;;5041237;28;20207;-72
2021/06/17 09:23:44;;;;;;;4.90;2.50;;;26.80;99.90;;;;;;5055222;28;20225;-73
2021/06/17 09:26:20;;;;;;;10.13;2.70;;;26.90;99.90;;;;;;5064080;28;20210;-73
2021/06/17 09:29:04;;;;;;;7.00;2.80;;;27.20;99.90;;;;;;5060062;28;20208;-73
2021/06/17 09:31:44;;;;;;;7.57;2.90;;;27.10;99.90;;;;;;5044804;28;20813;-73
2021/06/17 09:34:14;;;;;;;4.90;2.08;;;27.20;99.90;;;;;;5061415;28;20814;-73
2021/06/17 09:36:41;;;;;;;11.27;2.90;;;27.30;99.90;;;;;;5058608;28;20187;-72
2021/06/17 09:39:19;;;;;;;6.45;2.63;;;27.20;99.90;;;;;;5058161;28;20252;-74
2021/06/17 09:41:50;;;;;;;8.88;2.65;;;27.20;99.90;;;;;;5057983;28;20794;-70
2021/06/17 09:44:37;;;;;;;12.50;2.92;;;27.20;99.90;;;;;;5060183;28;20194;-73
2021/06/17 09:47:21;;;;;;;6.40;2.55;;;26.90;99.90;;;;;;5058548;28;20637;-72
2021/06/17 09:49:51;;;;;;;9.57;2.85;;;27.10;99.90;;;;;;5057915;28;20194;-72
2021/06/17 09:52:18;;;;;;;15.45;2.80;;;27.20;99.90;;;;;;5064048;28;20179;-71
2021/06/17 09:54:47;;;;;;;9.75;2.70;;;27.40;99.90;;;;;;5037491;28;20183;-72
2021/06/17 09:57:19;;;;;;;8.32;3.10;;;27.50;99.90;;;;;;5059883;28;20194;-73
2021/06/17 09:59:54;;;;;;;8.63;2.58;;;27.50;99.90;;;;;;5058594;28;20612;-74
2021/06/17 10:02:33;;;;;;;9.57;2.55;;;27.50;99.90;;;;;;5058890;28;20639;-72
2021/06/17 10:05:26;;;;;;;5.85;2.45;;;27.90;99.90;;;;;;5061982;28;20203;-70
2021/06/17 10:07:52;;;;;;;7.40;2.50;;;27.70;99.90;;;;;;5061907;28;20296;-74
2021/06/17 10:10:25;;;;;;;7.20;2.58;;;28.00;99.90;;;;;;5073036;28;20273;-74
2021/06/17 10:12:52;;;;;;;10.65;2.60;;;28.20;99.90;;;;;;5056087;28;20867;-73
2021/06/17 10:15:19;;;;;;;7.65;3.00;;;28.00;99.90;;;;;;5059046;28;20202;-73
2021/06/17 10:17:46;;;;;;;7.70;2.70;;;28.10;99.90;;;;;;5056400;28;20192;-73
2021/06/17 10:20:13;;;;;;;7.45;2.83;;;28.00;99.90;;;;;;5060342;28;20291;-73
2021/06/17 10:22:41;;;;;;;9.73;2.80;;;28.10;99.90;;;;;;5051482;28;20946;-72
2021/06/17 10:25:22;;;;;;;7.22;2.63;;;27.90;99.90;;;;;;5055422;28;20289;-72
2021/06/17 10:27:50;;;;;;;7.22;2.40;;;27.70;99.90;;;;;;5054165;28;20222;-73
2021/06/17 10:30:19;;;;;;;6.35;2.42;;;27.70;99.90;;;;;;5050576;28;20183;-74
2021/06/17 10:32:50;;;;;;;9.93;2.42;;;27.90;99.90;;;;;;5069094;28;20671;-73
2021/06/17 10:35:30;;;;;;;8.02;3.05;;;27.90;99.90;;;;;;5057987;28;20182;-72
2021/06/17 10:38:05;;;;;;;6.65;2.60;;;27.80;99.90;;;;;;5067305;28;20552;-73
2021/06/17 10:40:35;;;;;;;4.57;2.53;;;27.60;99.90;;;;;;5054697;28;20194;-73
2021/06/17 10:43:20;;;;;;;9.10;2.60;;;27.60;99.90;;;;;;5052507;28;20220;-72
2021/06/17 10:45:49;;;;;;;5.85;2.58;;;27.50;99.90;;;;;;5044820;28;21002;-72
2021/06/17 10:48:25;;;;;;;8.05;2.47;;;27.30;99.90;;;;;;5053279;28;20191;-73
2021/06/17 10:51:09;;;;;;;7.05;2.70;;;27.30;99.90;;;;;;5060148;28;20186;-72
2021/06/17 10:53:36;;;;;;;7.47;2.90;;;27.50;99.90;;;;;;5056092;28;20185;-72
2021/06/17 10:56:33;;;;;;;4.68;2.45;;;27.50;99.90;;;;;;5071688;28;20195;-73
2021/06/17 10:59:01;;;;;;;7.68;2.53;;;27.60;99.90;;;;;;5039029;28;20199;-73
2021/06/17 11:01:40;;;;;;;4.03;2.22;;;27.60;99.90;;;;;;5051426;28;20217;-74
2021/06/17 11:04:21;;;;;;;7.65;2.53;;;27.60;99.90;;;;;;5057173;28;20282;-74
2021/06/17 11:06:56;;;;;;;9.73;2.30;;;27.60;99.90;;;;;;5056013;28;20668;-73
2021/06/17 11:09:45;;;;;;;11.02;2.65;;;27.80;99.90;;;;;;5056097;28;20190;-73
2021/06/17 11:12:18;;;;;;;6.53;2.42;;;27.80;99.90;;;;;;5056930;28;20481;-71
2021/06/17 11:14:49;;;;;;;5.68;2.58;;;27.60;99.90;;;;;;5064411;28;20484;-73
2021/06/17 11:17:33;;;;;;;5.20;2.28;;;27.50;99.90;;;;;;5055450;28;20299;-73
2021/06/17 11:20:22;;;;;;;7.22;2.80;;;27.70;99.90;;;;;;5057632;28;20191;-74
2021/06/17 11:22:58;;;;;;;15.95;2.85;;;27.80;99.90;;;;;;5058125;28;20191;-73
2021/06/17 11:25:28;;;;;;;8.00;2.67;;;27.60;99.90;;;;;;5056922;28;20178;-74
2021/06/17 11:28:08;;;;;;;8.68;2.67;;;27.70;99.90;;;;;;5054220;28;20218;-74
2021/06/17 11:30:43;;;;;;;16.02;3.25;;;27.70;99.90;;;;;;5061804;28;20195;-74
2021/06/17 11:33:18;;;;;;;7.75;2.90;;;27.30;99.90;;;;;;5053103;28;20183;-74
2021/06/17 11:35:50;;;;;;;6.63;2.63;;;27.50;99.90;;;;;;5053423;28;20239;-72
2021/06/17 11:38:32;;;;;;;16.40;3.08;;;27.50;99.90;;;;;;5055860;28;20194;-74
2021/06/17 11:41:11;;;;;;;7.32;2.55;;;27.40;99.90;;;;;;5055803;28;20241;-73
2021/06/17 11:43:40;;;;;;;14.55;4.00;;;27.70;99.90;;;;;;5056199;28;20195;-72
2021/06/17 11:46:39;;;;;;;6.90;2.60;;;27.70;99.90;;;;;;5056802;28;20222;-74
2021/06/17 11:49:09;;;;;;;6.82;2.63;;;27.60;99.90;;;;;;5063389;28;20892;-73
2021/06/17 11:51:51;;;;;;;10.20;2.75;;;27.50;99.90;;;;;;5054966;28;20198;-72
2021/06/17 11:54:21;;;;;;;5.32;2.60;;;27.70;99.90;;;;;;5055438;28;20271;-72
2021/06/17 11:56:53;;;;;;;6.47;2.63;;;27.40;99.90;;;;;;5056655;28;20190;-73
2021/06/17 11:59:38;;;;;;;7.65;2.50;;;27.20;99.90;;;;;;5056452;28;20289;-71
2021/06/17 12:02:15;;;;;;;14.75;2.95;;;27.10;99.90;;;;;;5053325;28;20198;-71
2021/06/17 12:05:07;;;;;;;5.22;2.50;;;27.30;99.90;;;;;;5052077;28;20214;-71
2021/06/17 12:07:48;;;;;;;10.18;2.80;;;27.10;99.90;;;;;;5078098;28;20210;-71
2021/06/17 12:10:23;;;;;;;10.25;2.60;;;27.40;99.90;;;;;;5061008;28;20531;-72
2021/06/17 12:13:03;;;;;;;15.40;3.10;;;27.50;99.90;;;;;;5056159;28;20187;-72
2021/06/17 12:15:37;;;;;;;9.20;2.35;;;27.40;99.90;;;;;;5052841;28;20210;-72
2021/06/17 12:18:10;;;;;;;8.98;2.78;;;27.40;99.90;;;;;;5061431;28;20198;-72
2021/06/17 12:20:39;;;;;;;5.78;2.45;;;27.30;99.90;;;;;;5055199;28;20975;-72
2021/06/17 12:23:18;;;;;;;7.32;2.67;;;27.10;99.90;;;;;;5060534;28;20202;-72
2021/06/17 12:25:59;;;;;;;11.80;2.30;;;27.30;99.90;;;;;;5066073;28;20205;-71
2021/06/17 12:28:27;;;;;;;7.03;2.53;;;27.50;99.90;;;;;;5061864;28;20218;-73
2021/06/17 12:30:55;;;;;;;7.88;2.53;;;27.80;99.90;;;;;;5063192;28;20198;-74
2021/06/17 12:33:32;;;;;;;11.57;2.40;;;27.60;99.90;;;;;;5063591;28;20209;-73
2021/06/17 12:36:02;;;;;;;8.75;2.90;;;27.60;99.90;;;;;;5056276;28;20182;-72
2021/06/17 12:38:33;;;;;;;6.72;2.30;;;27.40;99.90;;;;;;5059760;28;20222;-73
2021/06/17 12:41:19;;;;;;;5.90;2.20;;;27.50;99.90;;;;;;5056773;28;20305;-70
2021/06/17 12:43:55;;;;;;;5.13;2.53;;;27.60;99.90;;;;;;5058841;28;20261;-73
2021/06/17 12:46:37;;;;;;;7.55;2.58;;;27.60;99.90;;;;;;5058440;28;20229;-73
2021/06/17 12:52:10;;;;;;;5.38;2.40;;;27.50;99.90;;;;;;5049908;28;20198;-73
2021/06/17 12:54:48;;;;;;;7.35;2.40;;;27.50;99.90;;;;;;5057347;28;20831;-74
2021/06/17 12:57:18;;;;;;;4.63;2.22;;;27.60;99.90;;;;;;5057735;28;20198;-72
2021/06/17 12:59:55;;;;;;;4.68;2.67;;;27.50;99.90;;;;;;5059109;28;20282;-73
2021/06/17 13:02:21;;;;;;;4.55;2.47;;;27.40;99.90;;;;;;5058662;28;20203;-73
2021/06/17 13:05:24;;;;;;;6.50;2.75;;;27.30;99.90;;;;;;5063967;28;20206;-72
2021/06/17 13:08:12;;;;;;;4.85;2.60;;;27.40;99.90;;;;;;5057169;28;20577;-73
2021/06/17 13:10:50;;;;;;;6.80;2.42;;;27.40;99.90;;;;;;5058157;28;20585;-73
2021/06/17 13:13:30;;;;;;;8.52;2.45;;;27.30;99.90;;;;;;5065953;28;20191;-73